sensor_id;sensor_type;location;lat;lon;timestamp;pressure;altitude;pressure_sealevel;temperature;humidity
69223;BME280;56514;51.816;-0.026;2023-01-29T00:00:40;102517.28;;;6.96;68.98
69223;BME280;56514;51.816;-0.026;2023-01-29T00:03:49;102506.75;;;6.97;69.24
69223;BME280;56514;51.816;-0.026;2023-01-29T00:06:55;102515.34;;;7.02;69.10
69223;BME280;56514;51.816;-0.026;2023-01-29T00:10:00;102516.44;;;6.94;69.21
69223;BME280;56514;51.816;-0.026;2023-01-29T00:13:10;102511.34;;;6.88;69.32
69223;BME280;56514;51.816;-0.026;2023-01-29T00:16:19;102507.03;;;6.85;69.73
69223;BME280;56514;51.816;-0.026;2023-01-29T00:19:28;102506.97;;;6.88;69.81
69223;BME280;56514;51.816;-0.026;2023-01-29T00:22:37;102513.06;;;6.89;69.67
69223;BME280;56514;51.816;-0.026;2023-01-29T00:25:47;102503.34;;;6.92;69.37
69223;BME280;56514;51.816;-0.026;2023-01-29T00:28:56;102504.31;;;6.90;69.98
69223;BME280;56514;51.816;-0.026;2023-01-29T00:32:05;102492.09;;;6.87;69.80
69223;BME280;56514;51.816;-0.026;2023-01-29T00:35:17;102503.53;;;6.85;70.17
69223;BME280;56514;51.816;-0.026;2023-01-29T00:38:26;102508.59;;;6.92;69.63
69223;BME280;56514;51.816;-0.026;2023-01-29T00:41:36;102510.44;;;6.89;70.15
69223;BME280;56514;51.816;-0.026;2023-01-29T00:44:41;102505.97;;;6.92;69.79
69223;BME280;56514;51.816;-0.026;2023-01-29T00:47:41;102512.13;;;6.91;69.92
69223;BME280;56514;51.816;-0.026;2023-01-29T00:50:26;102502.53;;;6.90;69.74
69223;BME280;56514;51.816;-0.026;2023-01-29T00:53:10;102508.50;;;6.97;70.04
69223;BME280;56514;51.816;-0.026;2023-01-29T00:55:55;102508.53;;;6.95;69.93
69223;BME280;56514;51.816;-0.026;2023-01-29T00:58:40;102495.44;;;6.94;70.03
69223;BME280;56514;51.816;-0.026;2023-01-29T01:01:25;102490.09;;;6.98;69.94
69223;BME280;56514;51.816;-0.026;2023-01-29T01:04:28;102484.94;;;6.94;69.97
69223;BME280;56514;51.816;-0.026;2023-01-29T01:07:13;102484.03;;;6.95;70.28
69223;BME280;56514;51.816;-0.026;2023-01-29T01:09:58;102475.25;;;6.97;69.44
69223;BME280;56514;51.816;-0.026;2023-01-29T01:13:07;102461.22;;;6.98;69.58
69223;BME280;56514;51.816;-0.026;2023-01-29T01:15:53;102464.63;;;7.02;69.92
69223;BME280;56514;51.816;-0.026;2023-01-29T01:18:37;102463.56;;;7.09;69.55
69223;BME280;56514;51.816;-0.026;2023-01-29T01:21:23;102466.34;;;7.03;69.72
69223;BME280;56514;51.816;-0.026;2023-01-29T01:24:07;102463.00;;;6.96;70.03
69223;BME280;56514;51.816;-0.026;2023-01-29T01:26:52;102459.63;;;6.93;70.17
69223;BME280;56514;51.816;-0.026;2023-01-29T01:29:37;102458.72;;;6.94;69.89
69223;BME280;56514;51.816;-0.026;2023-01-29T01:32:22;102472.81;;;6.90;70.31
69223;BME280;56514;51.816;-0.026;2023-01-29T01:35:09;102462.25;;;6.93;70.10
69223;BME280;56514;51.816;-0.026;2023-01-29T01:37:54;102464.03;;;6.91;70.66
69223;BME280;56514;51.816;-0.026;2023-01-29T01:40:43;102466.56;;;6.95;70.23
69223;BME280;56514;51.816;-0.026;2023-01-29T01:43:49;102460.34;;;6.98;70.21
69223;BME280;56514;51.816;-0.026;2023-01-29T01:46:36;102467.56;;;6.90;70.59
69223;BME280;56514;51.816;-0.026;2023-01-29T01:49:21;102467.41;;;6.96;70.17
69223;BME280;56514;51.816;-0.026;2023-01-29T01:52:08;102462.38;;;6.88;70.80
69223;BME280;56514;51.816;-0.026;2023-01-29T01:54:54;102465.91;;;6.86;70.90
69223;BME280;56514;51.816;-0.026;2023-01-29T01:57:42;102466.81;;;6.85;71.00
69223;BME280;56514;51.816;-0.026;2023-01-29T02:00:30;102462.41;;;6.87;71.19
69223;BME280;56514;51.816;-0.026;2023-01-29T02:03:16;102464.78;;;6.96;70.42
69223;BME280;56514;51.816;-0.026;2023-01-29T02:06:22;102471.19;;;6.84;71.29
69223;BME280;56514;51.816;-0.026;2023-01-29T02:09:31;102473.53;;;6.95;71.07
69223;BME280;56514;51.816;-0.026;2023-01-29T02:12:21;102464.09;;;6.89;71.30
69223;BME280;56514;51.816;-0.026;2023-01-29T02:15:07;102479.09;;;6.83;71.60
69223;BME280;56514;51.816;-0.026;2023-01-29T02:17:53;102480.78;;;6.87;71.11
69223;BME280;56514;51.816;-0.026;2023-01-29T02:20:43;102477.31;;;6.85;71.46
69223;BME280;56514;51.816;-0.026;2023-01-29T02:30:04;102477.91;;;6.96;71.28
69223;BME280;56514;51.816;-0.026;2023-01-29T02:33:01;102469.13;;;6.97;71.16
69223;BME280;56514;51.816;-0.026;2023-01-29T02:35:54;102469.13;;;6.97;71.58
69223;BME280;56514;51.816;-0.026;2023-01-29T02:38:54;102478.69;;;6.99;71.20
69223;BME280;56514;51.816;-0.026;2023-01-29T02:42:25;102471.63;;;7.01;71.22
69223;BME280;56514;51.816;-0.026;2023-01-29T02:45:17;102476.00;;;7.01;71.20
69223;BME280;56514;51.816;-0.026;2023-01-29T02:48:03;102469.88;;;7.02;71.27
69223;BME280;56514;51.816;-0.026;2023-01-29T02:50:57;102458.47;;;7.03;70.89
69223;BME280;56514;51.816;-0.026;2023-01-29T02:54:07;102456.88;;;6.97;71.64
69223;BME280;56514;51.816;-0.026;2023-01-29T02:57:07;102451.59;;;6.99;71.31
69223;BME280;56514;51.816;-0.026;2023-01-29T03:03:13;102442.16;;;6.92;72.25
69223;BME280;56514;51.816;-0.026;2023-01-29T03:06:06;102443.97;;;6.90;71.97
69223;BME280;56514;51.816;-0.026;2023-01-29T03:09:02;102443.84;;;6.94;71.54
69223;BME280;56514;51.816;-0.026;2023-01-29T03:11:54;102440.47;;;6.89;72.21
69223;BME280;56514;51.816;-0.026;2023-01-29T03:14:45;102435.22;;;6.89;72.31
69223;BME280;56514;51.816;-0.026;2023-01-29T03:17:58;102436.00;;;6.93;71.97
69223;BME280;56514;51.816;-0.026;2023-01-29T03:20:49;102432.63;;;6.88;72.25
69223;BME280;56514;51.816;-0.026;2023-01-29T03:23:36;102423.78;;;6.92;71.99
69223;BME280;56514;51.816;-0.026;2023-01-29T03:26:42;102412.56;;;6.87;72.53
69223;BME280;56514;51.816;-0.026;2023-01-29T03:29:48;102420.34;;;6.90;72.87
69223;BME280;56514;51.816;-0.026;2023-01-29T03:32:53;102421.22;;;6.89;72.65
69223;BME280;56514;51.816;-0.026;2023-01-29T03:35:46;102422.22;;;6.85;72.98
69223;BME280;56514;51.816;-0.026;2023-01-29T03:38:33;102415.94;;;6.90;72.44
69223;BME280;56514;51.816;-0.026;2023-01-29T03:48:03;102407.28;;;6.88;72.51
69223;BME280;56514;51.816;-0.026;2023-01-29T03:57:27;102389.00;;;6.85;72.88
69223;BME280;56514;51.816;-0.026;2023-01-29T04:00:18;102391.63;;;6.85;73.08
69223;BME280;56514;51.816;-0.026;2023-01-29T04:03:11;102398.50;;;6.89;72.85
69223;BME280;56514;51.816;-0.026;2023-01-29T04:06:08;102386.13;;;6.94;72.87
69223;BME280;56514;51.816;-0.026;2023-01-29T04:09:03;102390.47;;;6.95;72.97
69223;BME280;56514;51.816;-0.026;2023-01-29T04:12:03;102385.38;;;6.89;73.21
69223;BME280;56514;51.816;-0.026;2023-01-29T04:14:51;102387.06;;;6.92;72.91
69223;BME280;56514;51.816;-0.026;2023-01-29T04:17:40;102393.16;;;6.92;72.51
69223;BME280;56514;51.816;-0.026;2023-01-29T04:20:26;102381.81;;;6.92;73.24
69223;BME280;56514;51.816;-0.026;2023-01-29T04:23:25;102388.72;;;6.96;73.19
69223;BME280;56514;51.816;-0.026;2023-01-29T04:26:48;102379.97;;;6.95;72.52
69223;BME280;56514;51.816;-0.026;2023-01-29T04:32:31;102373.72;;;6.99;72.59
69223;BME280;56514;51.816;-0.026;2023-01-29T04:38:28;102374.59;;;7.00;72.55
69223;BME280;56514;51.816;-0.026;2023-01-29T04:41:27;102365.94;;;6.96;73.04
69223;BME280;56514;51.816;-0.026;2023-01-29T04:44:53;102363.28;;;6.98;72.90
69223;BME280;56514;51.816;-0.026;2023-01-29T04:50:41;102365.78;;;7.02;72.68
69223;BME280;56514;51.816;-0.026;2023-01-29T04:59:52;102358.78;;;7.03;72.64
69223;BME280;56514;51.816;-0.026;2023-01-29T05:02:41;102351.78;;;7.03;72.67
69223;BME280;56514;51.816;-0.026;2023-01-29T05:05:29;102356.97;;;7.05;72.07
69223;BME280;56514;51.816;-0.026;2023-01-29T05:08:16;102349.28;;;6.99;72.11
69223;BME280;56514;51.816;-0.026;2023-01-29T05:11:03;102342.25;;;6.99;72.54
69223;BME280;56514;51.816;-0.026;2023-01-29T05:13:49;102334.41;;;6.98;72.57
69223;BME280;56514;51.816;-0.026;2023-01-29T05:16:42;102324.09;;;6.92;72.86
69223;BME280;56514;51.816;-0.026;2023-01-29T05:19:27;102322.25;;;6.95;72.24
69223;BME280;56514;51.816;-0.026;2023-01-29T05:22:15;102318.00;;;6.91;72.84
69223;BME280;56514;51.816;-0.026;2023-01-29T05:25:01;102316.97;;;6.97;72.06
69223;BME280;56514;51.816;-0.026;2023-01-29T05:27:50;102321.28;;;6.98;72.04
69223;BME280;56514;51.816;-0.026;2023-01-29T05:30:52;102315.91;;;7.02;71.66
69223;BME280;56514;51.816;-0.026;2023-01-29T05:33:37;102296.72;;;7.02;72.28
69223;BME280;56514;51.816;-0.026;2023-01-29T05:36:22;102290.63;;;7.00;72.37
69223;BME280;56514;51.816;-0.026;2023-01-29T05:39:09;102297.22;;;7.14;71.78
69223;BME280;56514;51.816;-0.026;2023-01-29T05:41:54;102293.09;;;7.06;71.39
69223;BME280;56514;51.816;-0.026;2023-01-29T05:44:39;102287.75;;;7.09;71.18
69223;BME280;56514;51.816;-0.026;2023-01-29T05:47:24;102277.44;;;7.03;71.35
69223;BME280;56514;51.816;-0.026;2023-01-29T05:50:10;102276.50;;;7.04;71.64
69223;BME280;56514;51.816;-0.026;2023-01-29T05:52:57;102274.59;;;7.10;71.02
69223;BME280;56514;51.816;-0.026;2023-01-29T05:55:46;102266.81;;;7.07;70.75
69223;BME280;56514;51.816;-0.026;2023-01-29T05:58:32;102286.59;;;7.19;70.34
69223;BME280;56514;51.816;-0.026;2023-01-29T06:01:21;102284.19;;;7.11;70.35
69223;BME280;56514;51.816;-0.026;2023-01-29T06:04:06;102291.94;;;7.16;70.16
69223;BME280;56514;51.816;-0.026;2023-01-29T06:06:51;102288.34;;;7.18;70.01
69223;BME280;56514;51.816;-0.026;2023-01-29T06:09:37;102290.28;;;7.12;70.34
69223;BME280;56514;51.816;-0.026;2023-01-29T06:12:22;102283.41;;;7.08;70.28
69223;BME280;56514;51.816;-0.026;2023-01-29T06:15:07;102281.75;;;7.04;70.17
69223;BME280;56514;51.816;-0.026;2023-01-29T06:17:53;102279.13;;;7.04;70.62
69223;BME280;56514;51.816;-0.026;2023-01-29T06:20:38;102273.81;;;7.07;70.12
69223;BME280;56514;51.816;-0.026;2023-01-29T06:23:23;102270.25;;;7.09;69.73
69223;BME280;56514;51.816;-0.026;2023-01-29T06:26:13;102269.72;;;6.97;70.54
69223;BME280;56514;51.816;-0.026;2023-01-29T06:28:58;102266.47;;;6.89;70.60
69223;BME280;56514;51.816;-0.026;2023-01-29T06:31:43;102257.09;;;6.80;71.05
69223;BME280;56514;51.816;-0.026;2023-01-29T06:34:28;102258.97;;;6.75;71.03
69223;BME280;56514;51.816;-0.026;2023-01-29T06:37:13;102266.00;;;6.75;71.12
69223;BME280;56514;51.816;-0.026;2023-01-29T06:39:58;102271.59;;;6.61;71.34
69223;BME280;56514;51.816;-0.026;2023-01-29T06:42:42;102267.81;;;6.73;70.95
69223;BME280;56514;51.816;-0.026;2023-01-29T06:45:27;102272.66;;;6.56;71.07
69223;BME280;56514;51.816;-0.026;2023-01-29T06:48:12;102263.19;;;6.50;71.30
69223;BME280;56514;51.816;-0.026;2023-01-29T06:51:03;102257.31;;;6.41;71.83
69223;BME280;56514;51.816;-0.026;2023-01-29T06:53:49;102259.06;;;6.40;71.71
69223;BME280;56514;51.816;-0.026;2023-01-29T06:56:34;102260.03;;;6.38;72.03
69223;BME280;56514;51.816;-0.026;2023-01-29T06:59:19;102263.34;;;6.44;71.49
69223;BME280;56514;51.816;-0.026;2023-01-29T07:02:04;102256.25;;;6.48;71.50
69223;BME280;56514;51.816;-0.026;2023-01-29T07:04:50;102245.63;;;6.52;70.76
69223;BME280;56514;51.816;-0.026;2023-01-29T07:07:35;102235.47;;;6.40;71.60
69223;BME280;56514;51.816;-0.026;2023-01-29T07:10:20;102241.69;;;6.38;72.02
69223;BME280;56514;51.816;-0.026;2023-01-29T07:13:05;102237.47;;;6.31;71.69
69223;BME280;56514;51.816;-0.026;2023-01-29T07:15:51;102228.78;;;6.30;71.58
69223;BME280;56514;51.816;-0.026;2023-01-29T07:18:35;102226.78;;;6.40;71.80
69223;BME280;56514;51.816;-0.026;2023-01-29T07:21:20;102227.44;;;6.46;71.33
69223;BME280;56514;51.816;-0.026;2023-01-29T07:24:05;102228.19;;;6.51;70.84
69223;BME280;56514;51.816;-0.026;2023-01-29T07:26:50;102235.06;;;6.55;71.02
69223;BME280;56514;51.816;-0.026;2023-01-29T07:29:36;102238.56;;;6.56;71.05
69223;BME280;56514;51.816;-0.026;2023-01-29T07:32:21;102234.16;;;6.58;70.80
69223;BME280;56514;51.816;-0.026;2023-01-29T07:35:06;102238.69;;;6.51;71.28
69223;BME280;56514;51.816;-0.026;2023-01-29T07:37:51;102230.59;;;6.59;70.80
69223;BME280;56514;51.816;-0.026;2023-01-29T07:40:36;102233.00;;;6.66;70.61
69223;BME280;56514;51.816;-0.026;2023-01-29T07:43:21;102236.41;;;6.70;70.04
69223;BME280;56514;51.816;-0.026;2023-01-29T07:46:08;102235.59;;;6.68;70.42
69223;BME280;56514;51.816;-0.026;2023-01-29T07:48:53;102236.41;;;6.70;70.29
69223;BME280;56514;51.816;-0.026;2023-01-29T07:51:37;102240.63;;;6.75;70.10
69223;BME280;56514;51.816;-0.026;2023-01-29T07:54:22;102231.00;;;6.76;69.95
69223;BME280;56514;51.816;-0.026;2023-01-29T07:57:07;102237.59;;;6.89;69.71
69223;BME280;56514;51.816;-0.026;2023-01-29T07:59:52;102234.00;;;6.93;69.41
69223;BME280;56514;51.816;-0.026;2023-01-29T08:02:37;102228.94;;;6.87;70.09
69223;BME280;56514;51.816;-0.026;2023-01-29T08:05:22;102232.44;;;6.86;70.06
69223;BME280;56514;51.816;-0.026;2023-01-29T08:08:07;102223.69;;;6.87;70.54
69223;BME280;56514;51.816;-0.026;2023-01-29T08:10:52;102232.00;;;7.01;69.84
69223;BME280;56514;51.816;-0.026;2023-01-29T08:13:36;102226.53;;;7.08;68.98
69223;BME280;56514;51.816;-0.026;2023-01-29T08:16:22;102216.13;;;7.05;69.62
69223;BME280;56514;51.816;-0.026;2023-01-29T08:19:07;102216.34;;;6.98;70.23
69223;BME280;56514;51.816;-0.026;2023-01-29T08:21:51;102215.28;;;7.05;69.80
69223;BME280;56514;51.816;-0.026;2023-01-29T08:24:36;102218.53;;;7.13;69.74
69223;BME280;56514;51.816;-0.026;2023-01-29T08:27:21;102219.09;;;7.22;69.57
69223;BME280;56514;51.816;-0.026;2023-01-29T08:30:07;102218.91;;;7.29;69.39
69223;BME280;56514;51.816;-0.026;2023-01-29T08:32:53;102222.38;;;7.31;69.28
69223;BME280;56514;51.816;-0.026;2023-01-29T08:35:38;102215.53;;;7.25;69.52
69223;BME280;56514;51.816;-0.026;2023-01-29T08:38:24;102208.69;;;7.19;69.88
69223;BME280;56514;51.816;-0.026;2023-01-29T08:41:10;102219.75;;;7.31;69.85
69223;BME280;56514;51.816;-0.026;2023-01-29T08:43:55;102213.75;;;7.26;70.05
69223;BME280;56514;51.816;-0.026;2023-01-29T08:46:41;102212.69;;;7.33;69.79
69223;BME280;56514;51.816;-0.026;2023-01-29T08:49:25;102212.63;;;7.34;69.92
69223;BME280;56514;51.816;-0.026;2023-01-29T08:52:10;102214.34;;;7.35;70.23
69223;BME280;56514;51.816;-0.026;2023-01-29T08:54:55;102206.38;;;7.38;70.27
69223;BME280;56514;51.816;-0.026;2023-01-29T08:57:40;102206.31;;;7.40;70.60
69223;BME280;56514;51.816;-0.026;2023-01-29T09:00:25;102206.91;;;7.49;70.00
69223;BME280;56514;51.816;-0.026;2023-01-29T09:03:25;102206.13;;;7.46;70.13
69223;BME280;56514;51.816;-0.026;2023-01-29T09:06:11;102216.53;;;7.49;70.19
69223;BME280;56514;51.816;-0.026;2023-01-29T09:08:56;102206.81;;;7.52;69.91
69223;BME280;56514;51.816;-0.026;2023-01-29T09:11:41;102208.84;;;7.43;70.09
69223;BME280;56514;51.816;-0.026;2023-01-29T09:14:26;102204.63;;;7.39;70.47
69223;BME280;56514;51.816;-0.026;2023-01-29T09:17:11;102205.25;;;7.45;70.29
69223;BME280;56514;51.816;-0.026;2023-01-29T09:19:56;102205.16;;;7.48;70.91
69223;BME280;56514;51.816;-0.026;2023-01-29T09:22:42;102200.38;;;7.61;70.33
69223;BME280;56514;51.816;-0.026;2023-01-29T09:25:27;102204.06;;;7.55;70.70
69223;BME280;56514;51.816;-0.026;2023-01-29T09:28:12;102206.50;;;7.61;70.80
69223;BME280;56514;51.816;-0.026;2023-01-29T09:31:00;102208.72;;;7.73;70.41
69223;BME280;56514;51.816;-0.026;2023-01-29T09:33:45;102209.16;;;7.87;69.26
69223;BME280;56514;51.816;-0.026;2023-01-29T09:36:30;102209.03;;;7.90;69.19
69223;BME280;56514;51.816;-0.026;2023-01-29T09:39:15;102212.50;;;7.92;68.97
69223;BME280;56514;51.816;-0.026;2023-01-29T09:42:10;102215.28;;;7.86;69.37
69223;BME280;56514;51.816;-0.026;2023-01-29T09:45:05;102215.19;;;7.89;69.68
69223;BME280;56514;51.816;-0.026;2023-01-29T09:48:02;102207.88;;;7.99;68.81
69223;BME280;56514;51.816;-0.026;2023-01-29T09:50:51;102215.00;;;7.95;69.26
69223;BME280;56514;51.816;-0.026;2023-01-29T09:57:06;102209.28;;;8.09;69.45
69223;BME280;56514;51.816;-0.026;2023-01-29T09:59:58;102205.31;;;8.22;68.69
69223;BME280;56514;51.816;-0.026;2023-01-29T10:03:03;102204.66;;;8.15;69.01
69223;BME280;56514;51.816;-0.026;2023-01-29T10:06:07;102201.13;;;8.16;69.01
69223;BME280;56514;51.816;-0.026;2023-01-29T10:27:39;102179.81;;;8.50;69.13
69223;BME280;56514;51.816;-0.026;2023-01-29T10:30:38;102175.03;;;8.59;68.37
69223;BME280;56514;51.816;-0.026;2023-01-29T10:33:41;102176.56;;;8.66;68.62
69223;BME280;56514;51.816;-0.026;2023-01-29T10:39:22;102171.47;;;8.85;67.95
69223;BME280;56514;51.816;-0.026;2023-01-29T10:42:32;102170.72;;;8.81;68.03
69223;BME280;56514;51.816;-0.026;2023-01-29T10:52:04;102156.88;;;8.76;68.26
69223;BME280;56514;51.816;-0.026;2023-01-29T11:01:02;102133.88;;;8.58;69.13
69223;BME280;56514;51.816;-0.026;2023-01-29T11:03:57;102134.16;;;8.74;69.49
69223;BME280;56514;51.816;-0.026;2023-01-29T11:06:43;102137.97;;;8.88;68.71
69223;BME280;56514;51.816;-0.026;2023-01-29T11:09:35;102127.63;;;8.84;68.87
69223;BME280;56514;51.816;-0.026;2023-01-29T11:12:26;102123.81;;;8.93;69.05
69223;BME280;56514;51.816;-0.026;2023-01-29T11:15:25;102118.25;;;9.00;68.74
69223;BME280;56514;51.816;-0.026;2023-01-29T11:18:13;102111.75;;;9.09;68.18
69223;BME280;56514;51.816;-0.026;2023-01-29T11:21:02;102098.31;;;9.15;68.31
69223;BME280;56514;51.816;-0.026;2023-01-29T11:24:10;102089.28;;;9.22;67.88
69223;BME280;56514;51.816;-0.026;2023-01-29T11:26:58;102088.72;;;9.14;68.35
69223;BME280;56514;51.816;-0.026;2023-01-29T11:29:47;102088.34;;;9.23;68.49
69223;BME280;56514;51.816;-0.026;2023-01-29T11:32:33;102086.47;;;9.26;68.52
69223;BME280;56514;51.816;-0.026;2023-01-29T11:35:22;102069.34;;;9.36;68.14
69223;BME280;56514;51.816;-0.026;2023-01-29T11:38:18;102079.69;;;9.41;68.12
69223;BME280;56514;51.816;-0.026;2023-01-29T11:41:07;102071.44;;;9.28;68.34
69223;BME280;56514;51.816;-0.026;2023-01-29T11:43:57;102065.84;;;9.16;69.06
69223;BME280;56514;51.816;-0.026;2023-01-29T11:46:44;102064.84;;;9.18;69.30
69223;BME280;56514;51.816;-0.026;2023-01-29T11:49:33;102055.84;;;9.44;68.67
69223;BME280;56514;51.816;-0.026;2023-01-29T11:52:39;102046.88;;;9.49;68.59
69223;BME280;56514;51.816;-0.026;2023-01-29T11:55:31;102047.09;;;9.63;68.16
69223;BME280;56514;51.816;-0.026;2023-01-29T11:58:31;102048.88;;;9.83;67.14
69223;BME280;56514;51.816;-0.026;2023-01-29T12:01:35;102035.31;;;9.92;66.77
69223;BME280;56514;51.816;-0.026;2023-01-29T12:04:22;102043.41;;;9.87;66.88
69223;BME280;56514;51.816;-0.026;2023-01-29T12:07:16;102034.78;;;9.84;67.27
69223;BME280;56514;51.816;-0.026;2023-01-29T12:10:01;102033.25;;;9.98;67.38
69223;BME280;56514;51.816;-0.026;2023-01-29T12:12:47;102024.81;;;10.10;66.38
69223;BME280;56514;51.816;-0.026;2023-01-29T12:15:32;102013.88;;;9.99;67.42
69223;BME280;56514;51.816;-0.026;2023-01-29T12:18:39;102009.13;;;10.07;67.22
69223;BME280;56514;51.816;-0.026;2023-01-29T12:21:33;102004.50;;;10.12;67.23
69223;BME280;56514;51.816;-0.026;2023-01-29T12:24:42;101992.66;;;10.21;66.73
69223;BME280;56514;51.816;-0.026;2023-01-29T12:27:59;101986.41;;;10.23;66.43
69223;BME280;56514;51.816;-0.026;2023-01-29T12:31:09;101969.44;;;10.29;66.44
69223;BME280;56514;51.816;-0.026;2023-01-29T12:34:00;101969.50;;;10.27;66.76
69223;BME280;56514;51.816;-0.026;2023-01-29T12:36:55;101951.47;;;10.37;65.88
69223;BME280;56514;51.816;-0.026;2023-01-29T12:39:42;101948.06;;;10.16;66.53
69223;BME280;56514;51.816;-0.026;2023-01-29T12:42:38;101938.81;;;10.08;67.09
69223;BME280;56514;51.816;-0.026;2023-01-29T12:45:25;101933.31;;;10.12;67.47
69223;BME280;56514;51.816;-0.026;2023-01-29T12:48:14;101918.28;;;10.14;67.61
69223;BME280;56514;51.816;-0.026;2023-01-29T12:51:07;101917.28;;;10.17;67.08
69223;BME280;56514;51.816;-0.026;2023-01-29T12:54:04;101915.06;;;10.08;67.59
69223;BME280;56514;51.816;-0.026;2023-01-29T12:56:52;101919.41;;;10.09;67.85
69223;BME280;56514;51.816;-0.026;2023-01-29T12:59:48;101905.03;;;10.16;67.53
69223;BME280;56514;51.816;-0.026;2023-01-29T13:02:42;101901.31;;;10.20;67.51
69223;BME280;56514;51.816;-0.026;2023-01-29T13:05:44;101890.91;;;10.17;67.67
69223;BME280;56514;51.816;-0.026;2023-01-29T13:09:03;101887.41;;;10.16;67.69
69223;BME280;56514;51.816;-0.026;2023-01-29T13:12:03;101876.78;;;10.18;67.80
69223;BME280;56514;51.816;-0.026;2023-01-29T13:14:55;101879.78;;;10.29;67.88
69223;BME280;56514;51.816;-0.026;2023-01-29T13:17:45;101864.56;;;10.70;66.89
69223;BME280;56514;51.816;-0.026;2023-01-29T13:20:32;101851.19;;;10.90;65.49
69223;BME280;56514;51.816;-0.026;2023-01-29T13:23:29;101850.94;;;10.94;66.21
69223;BME280;56514;51.816;-0.026;2023-01-29T13:26:20;101848.75;;;11.02;64.90
69223;BME280;56514;51.816;-0.026;2023-01-29T13:29:05;101847.38;;;10.78;65.90
69223;BME280;56514;51.816;-0.026;2023-01-29T13:31:53;101848.81;;;10.68;66.38
69223;BME280;56514;51.816;-0.026;2023-01-29T13:34:44;101849.63;;;10.68;66.38
69223;BME280;56514;51.816;-0.026;2023-01-29T13:37:33;101843.59;;;10.67;66.28
69223;BME280;56514;51.816;-0.026;2023-01-29T13:40:24;101838.09;;;10.71;66.68
69223;BME280;56514;51.816;-0.026;2023-01-29T13:43:19;101835.44;;;10.71;66.52
69223;BME280;56514;51.816;-0.026;2023-01-29T13:46:14;101834.75;;;10.68;67.11
69223;BME280;56514;51.816;-0.026;2023-01-29T13:49:02;101829.94;;;10.76;66.29
69223;BME280;56514;51.816;-0.026;2023-01-29T13:51:50;101833.56;;;10.56;66.89
69223;BME280;56514;51.816;-0.026;2023-01-29T13:54:36;101834.88;;;10.47;67.33
69223;BME280;56514;51.816;-0.026;2023-01-29T14:06:06;101813.25;;;10.58;67.64
69223;BME280;56514;51.816;-0.026;2023-01-29T14:08:52;101804.69;;;10.53;68.02
69223;BME280;56514;51.816;-0.026;2023-01-29T14:11:39;101809.38;;;10.48;67.90
69223;BME280;56514;51.816;-0.026;2023-01-29T14:17:31;101801.38;;;10.67;68.17
69223;BME280;56514;51.816;-0.026;2023-01-29T14:20:23;101804.06;;;10.82;67.08
69223;BME280;56514;51.816;-0.026;2023-01-29T14:23:35;101810.59;;;10.75;67.54
69223;BME280;56514;51.816;-0.026;2023-01-29T14:29:22;101802.53;;;10.61;68.02
69223;BME280;56514;51.816;-0.026;2023-01-29T14:32:22;101803.84;;;10.52;68.25
69223;BME280;56514;51.816;-0.026;2023-01-29T14:35:19;101803.16;;;10.49;68.54
69223;BME280;56514;51.816;-0.026;2023-01-29T14:38:06;101806.09;;;10.60;68.62
69223;BME280;56514;51.816;-0.026;2023-01-29T14:41:24;101794.22;;;10.51;68.51
69223;BME280;56514;51.816;-0.026;2023-01-29T14:45:00;101777.63;;;10.49;69.07
69223;BME280;56514;51.816;-0.026;2023-01-29T14:56:25;101774.53;;;10.91;67.69
69223;BME280;56514;51.816;-0.026;2023-01-29T14:59:22;101753.47;;;11.07;68.71
69223;BME280;56514;51.816;-0.026;2023-01-29T15:02:26;101758.75;;;11.70;66.30
69223;BME280;56514;51.816;-0.026;2023-01-29T15:05:20;101757.16;;;12.43;63.56
69223;BME280;56514;51.816;-0.026;2023-01-29T15:11:06;101738.78;;;11.96;63.70
69223;BME280;56514;51.816;-0.026;2023-01-29T15:14:32;101742.44;;;11.78;64.56
69223;BME280;56514;51.816;-0.026;2023-01-29T15:17:56;101751.66;;;11.86;64.44
69223;BME280;56514;51.816;-0.026;2023-01-29T15:20:46;101741.59;;;11.62;64.75
69223;BME280;56514;51.816;-0.026;2023-01-29T15:23:32;101748.16;;;11.39;65.35
69223;BME280;56514;51.816;-0.026;2023-01-29T15:26:18;101749.66;;;11.12;66.73
69223;BME280;56514;51.816;-0.026;2023-01-29T15:29:04;101752.09;;;11.00;67.05
69223;BME280;56514;51.816;-0.026;2023-01-29T15:31:50;101741.50;;;10.84;67.87
69223;BME280;56514;51.816;-0.026;2023-01-29T15:34:36;101741.97;;;10.75;68.44
69223;BME280;56514;51.816;-0.026;2023-01-29T15:37:32;101740.66;;;10.99;67.87
69223;BME280;56514;51.816;-0.026;2023-01-29T15:40:18;101739.72;;;11.00;67.59
69223;BME280;56514;51.816;-0.026;2023-01-29T15:43:20;101735.16;;;11.04;67.41
69223;BME280;56514;51.816;-0.026;2023-01-29T15:46:29;101735.38;;;10.99;67.42
69223;BME280;56514;51.816;-0.026;2023-01-29T15:49:30;101742.84;;;10.91;67.87
69223;BME280;56514;51.816;-0.026;2023-01-29T15:52:21;101730.28;;;10.96;67.77
69223;BME280;56514;51.816;-0.026;2023-01-29T15:55:20;101729.16;;;11.00;67.55
69223;BME280;56514;51.816;-0.026;2023-01-29T15:58:14;101721.25;;;10.85;68.25
69223;BME280;56514;51.816;-0.026;2023-01-29T16:01:02;101719.34;;;10.87;67.94
69223;BME280;56514;51.816;-0.026;2023-01-29T16:03:51;101730.31;;;10.79;68.20
69223;BME280;56514;51.816;-0.026;2023-01-29T16:06:39;101724.44;;;10.74;68.20
69223;BME280;56514;51.816;-0.026;2023-01-29T16:09:26;101719.78;;;10.62;68.99
69223;BME280;56514;51.816;-0.026;2023-01-29T16:12:12;101701.56;;;10.57;68.91
69223;BME280;56514;51.816;-0.026;2023-01-29T16:14:58;101709.03;;;10.49;69.14
69223;BME280;56514;51.816;-0.026;2023-01-29T16:17:44;101705.06;;;10.58;68.56
69223;BME280;56514;51.816;-0.026;2023-01-29T16:20:43;101703.31;;;10.41;68.94
69223;BME280;56514;51.816;-0.026;2023-01-29T16:23:55;101692.44;;;10.30;69.37
69223;BME280;56514;51.816;-0.026;2023-01-29T16:26:42;101688.34;;;10.25;69.25
69223;BME280;56514;51.816;-0.026;2023-01-29T16:29:32;101676.09;;;10.07;70.20
69223;BME280;56514;51.816;-0.026;2023-01-29T16:32:18;101673.16;;;10.13;69.78
69223;BME280;56514;51.816;-0.026;2023-01-29T16:35:04;101669.47;;;9.98;70.51
69223;BME280;56514;51.816;-0.026;2023-01-29T16:37:50;101661.94;;;9.91;70.74